Time;durP1;ratioP1;P1;durP2;ratioP2;P2;SDS_P1;SDS_P2;PMS_P1;PMS_P2;Temp;Humidity;BMP_temperature;BMP_pressure;BME280_temperature;BME280_humidity;BME280_pressure;Samples;Min_cycle;Max_cycle;Signal;HPM_P1;HPM_P2
2021/12/16 00:01:41;;;;;;;18.45;12.23;;;11.90;97.20;;;;;;5029552;28;20034;-84
2021/12/16 00:08:39;;;;;;;16.73;11.05;;;11.80;97.30;;;;;;5034563;28;20033;-84
2021/12/16 00:35:35;;;;;;;18.25;10.85;;;11.80;97.20;;;;;;5038760;28;20092;-83
2021/12/16 00:38:01;;;;;;;16.23;11.18;;;11.70;97.30;;;;;;5023833;28;20446;-84
2021/12/16 00:40:27;;;;;;;18.25;11.82;;;11.70;97.30;;;;;;5010291;28;20028;-83
2021/12/16 00:42:58;;;;;;;18.63;12.18;;;11.70;97.30;;;;;;5030888;28;20182;-84
2021/12/16 00:45:43;;;;;;;18.38;11.85;;;11.70;97.40;;;;;;5015423;28;20464;-84
2021/12/16 00:48:23;;;;;;;18.75;11.90;;;11.70;97.40;;;;;;5037494;28;20501;-84
2021/12/16 00:56:13;;;;;;;19.27;12.25;;;11.70;97.40;;;;;;5051349;28;20093;-84
2021/12/16 00:58:46;;;;;;;19.70;11.60;;;11.80;97.30;;;;;;5003660;28;20552;-84
2021/12/16 01:01:29;;;;;;;18.13;11.48;;;11.70;97.40;;;;;;5018806;28;20434;-84
2021/12/16 01:33:50;;;;;;;17.45;12.20;;;11.70;97.40;;;;;;5010891;28;20044;-84
2021/12/16 01:57:09;;;;;;;17.42;12.43;;;11.70;97.40;;;;;;5030941;28;20283;-84
2021/12/16 01:59:39;;;;;;;17.45;11.88;;;11.70;97.40;;;;;;5020828;28;20041;-84
2021/12/16 02:02:38;;;;;;;17.27;11.40;;;11.70;97.40;;;;;;5015241;28;20504;-83
2021/12/16 02:10:33;;;;;;;16.40;11.63;;;11.70;97.40;;;;;;5033662;28;20029;-84
2021/12/16 02:37:51;;;;;;;14.32;9.68;;;11.70;96.80;;;;;;5019803;28;19932;-84
2021/12/16 02:40:18;;;;;;;16.65;11.70;;;11.70;97.30;;;;;;5026675;28;20075;-84
2021/12/16 02:42:57;;;;;;;15.13;10.48;;;11.70;97.30;;;;;;5013913;28;20239;-83
2021/12/16 02:48:33;;;;;;;16.17;10.88;;;11.70;97.40;;;;;;5020159;28;20035;-84
2021/12/16 02:51:10;;;;;;;17.58;12.05;;;11.70;97.40;;;;;;4998140;28;20052;-84
2021/12/16 02:53:40;;;;;;;16.20;11.68;;;11.70;97.20;;;;;;5017836;28;20040;-84
2021/12/16 02:56:06;;;;;;;17.02;11.88;;;11.70;97.30;;;;;;5008077;28;20056;-84
2021/12/16 02:58:33;;;;;;;16.88;11.60;;;11.60;97.40;;;;;;5024769;28;20028;-84
2021/12/16 03:01:14;;;;;;;15.77;10.93;;;11.60;97.40;;;;;;5037439;28;20129;-84
2021/12/16 03:03:40;;;;;;;17.20;12.07;;;11.70;97.30;;;;;;5015558;28;20031;-84
2021/12/16 03:06:08;;;;;;;16.88;11.32;;;11.70;97.40;;;;;;5044284;28;20496;-84
2021/12/16 03:08:34;;;;;;;16.98;12.18;;;11.70;97.40;;;;;;5011669;28;20036;-84
2021/12/16 03:13:47;;;;;;;18.13;12.70;;;11.70;97.40;;;;;;5035548;28;20867;-84
2021/12/16 03:19:07;;;;;;;19.23;12.18;;;11.70;97.40;;;;;;5030556;28;20169;-84
2021/12/16 03:21:40;;;;;;;15.50;10.32;;;11.70;97.40;;;;;;5010169;28;20403;-83
2021/12/16 03:31:51;;;;;;;17.17;11.63;;;11.70;97.40;;;;;;5034769;28;20072;-84
2021/12/16 03:37:17;;;;;;;15.93;11.05;;;11.70;97.30;;;;;;5019810;28;20119;-84
2021/12/16 03:40:14;;;;;;;17.65;11.70;;;11.70;97.20;;;;;;5017922;28;20288;-84
2021/12/16 03:42:54;;;;;;;16.48;10.77;;;11.70;97.10;;;;;;5021871;28;20115;-84
2021/12/16 03:48:27;;;;;;;16.17;10.57;;;11.70;97.20;;;;;;5033066;28;20095;-83
2021/12/16 03:50:53;;;;;;;17.08;11.70;;;11.60;97.20;;;;;;5018492;28;20122;-84
2021/12/16 03:53:19;;;;;;;16.27;11.48;;;11.60;97.30;;;;;;5008132;28;20016;-84
2021/12/16 03:55:47;;;;;;;14.55;10.52;;;11.60;97.30;;;;;;5036711;28;20243;-84
2021/12/16 03:58:14;;;;;;;15.02;10.63;;;11.60;97.30;;;;;;5051455;28;20017;-84
2021/12/16 04:00:48;;;;;;;17.00;12.15;;;11.60;97.30;;;;;;5004034;28;20139;-84
2021/12/16 04:03:14;;;;;;;17.63;11.88;;;11.60;97.20;;;;;;5024244;28;20120;-84
2021/12/16 04:05:41;;;;;;;13.52;9.60;;;11.60;97.30;;;;;;5000432;28;20704;-84
2021/12/16 04:08:07;;;;;;;17.00;11.43;;;11.60;97.30;;;;;;5003970;28;20025;-84
2021/12/16 04:10:42;;;;;;;17.33;12.40;;;11.60;97.30;;;;;;5018244;28;20108;-84
2021/12/16 04:13:12;;;;;;;18.95;11.52;;;11.60;97.30;;;;;;5050536;28;20517;-84
2021/12/16 04:15:38;;;;;;;18.83;11.95;;;11.60;97.30;;;;;;4996684;28;20025;-84
2021/12/16 04:18:04;;;;;;;18.02;10.55;;;11.70;97.40;;;;;;5015004;28;20031;-84
2021/12/16 04:20:30;;;;;;;14.38;10.82;;;11.60;97.30;;;;;;5023002;28;20493;-84
2021/12/16 04:22:57;;;;;;;16.25;11.50;;;11.60;97.40;;;;;;5017108;28;20673;-84
2021/12/16 04:25:27;;;;;;;13.30;9.63;;;11.60;97.30;;;;;;5044398;28;20574;-84
2021/12/16 04:27:58;;;;;;;18.38;12.10;;;11.60;97.30;;;;;;5007265;28;20032;-84
2021/12/16 04:30:25;;;;;;;17.05;11.45;;;11.60;97.30;;;;;;5023223;28;20036;-84
2021/12/16 04:32:51;;;;;;;17.77;12.30;;;11.60;97.30;;;;;;5003169;28;20239;-84
2021/12/16 04:35:17;;;;;;;18.15;12.35;;;11.60;97.30;;;;;;5036553;28;20039;-84
2021/12/16 04:37:44;;;;;;;18.40;12.40;;;11.60;97.30;;;;;;5026555;28;20320;-84
2021/12/16 04:40:12;;;;;;;18.83;12.55;;;11.60;97.30;;;;;;5021768;28;20025;-84
2021/12/16 04:42:40;;;;;;;18.48;12.18;;;11.60;97.30;;;;;;5022330;28;20258;-84
2021/12/16 04:45:09;;;;;;;19.13;11.98;;;11.60;97.30;;;;;;5017068;28;20103;-84
2021/12/16 04:47:35;;;;;;;19.05;12.48;;;11.60;97.30;;;;;;5004520;28;20033;-84
2021/12/16 04:50:02;;;;;;;17.08;11.68;;;11.60;97.30;;;;;;5016490;28;20089;-84
2021/12/16 04:52:27;;;;;;;15.65;11.48;;;11.60;97.40;;;;;;5007072;28;20497;-84
2021/12/16 04:54:53;;;;;;;16.10;10.60;;;11.60;97.40;;;;;;5006291;28;20082;-84
2021/12/16 04:57:19;;;;;;;15.85;10.35;;;11.60;97.30;;;;;;5040723;28;20048;-84
2021/12/16 04:59:45;;;;;;;13.52;10.48;;;11.60;97.30;;;;;;5050900;28;20074;-84
2021/12/16 05:02:22;;;;;;;17.10;10.85;;;11.60;97.30;;;;;;5032925;28;20044;-84
2021/12/16 05:04:49;;;;;;;15.07;10.35;;;11.60;97.20;;;;;;5020107;28;20385;-84
2021/12/16 05:07:15;;;;;;;16.15;10.43;;;11.60;97.30;;;;;;5033349;28;20063;-84
2021/12/16 05:12:12;;;;;;;18.90;12.25;;;11.60;97.30;;;;;;5019975;28;20071;-84
2021/12/16 05:14:37;;;;;;;17.27;12.23;;;11.60;97.30;;;;;;5009111;28;20746;-84
2021/12/16 05:17:11;;;;;;;16.48;11.38;;;11.60;97.30;;;;;;5017891;28;20024;-84
2021/12/16 05:19:39;;;;;;;14.88;11.07;;;11.60;97.30;;;;;;5003801;28;20528;-84
2021/12/16 05:25:10;;;;;;;14.20;9.90;;;11.60;97.30;;;;;;4973395;28;20041;-84
2021/12/16 05:27:36;;;;;;;16.73;11.50;;;11.60;97.30;;;;;;5014436;28;20060;-84
2021/12/16 05:30:02;;;;;;;16.92;12.65;;;11.60;97.30;;;;;;5035556;28;20028;-84
2021/12/16 05:32:28;;;;;;;16.30;11.50;;;11.60;97.30;;;;;;5033804;28;21229;-84
2021/12/16 05:34:54;;;;;;;17.48;11.60;;;11.60;97.30;;;;;;5036744;28;20097;-84
2021/12/16 05:37:20;;;;;;;17.98;12.02;;;11.60;97.30;;;;;;5027118;28;20020;-84
2021/12/16 05:39:45;;;;;;;16.55;12.27;;;11.60;97.30;;;;;;5038965;28;20021;-84
2021/12/16 05:42:11;;;;;;;16.20;11.45;;;11.60;97.30;;;;;;5022430;28;20481;-84
2021/12/16 05:44:37;;;;;;;19.63;12.18;;;11.60;97.30;;;;;;5007590;28;20588;-84
2021/12/16 05:47:03;;;;;;;17.48;12.27;;;11.60;97.30;;;;;;5010934;28;20059;-84
2021/12/16 05:49:28;;;;;;;18.85;13.05;;;11.60;97.40;;;;;;5000437;28;20037;-84
2021/12/16 05:51:54;;;;;;;15.27;11.45;;;11.60;97.30;;;;;;5013744;28;20512;-84
2021/12/16 05:54:21;;;;;;;16.65;11.80;;;11.60;97.30;;;;;;5023741;28;20110;-84
2021/12/16 05:56:48;;;;;;;18.52;12.65;;;11.60;97.20;;;;;;5011827;28;20048;-84
2021/12/16 05:59:17;;;;;;;15.77;10.90;;;11.60;97.30;;;;;;5018958;28;20025;-84
2021/12/16 06:01:46;;;;;;;19.75;12.10;;;11.60;97.30;;;;;;5033461;28;20431;-84
2021/12/16 06:04:12;;;;;;;18.10;11.63;;;11.60;97.30;;;;;;5024835;28;20027;-84
2021/12/16 06:06:38;;;;;;;16.23;11.40;;;11.50;97.30;;;;;;5009728;28;20046;-84
2021/12/16 06:09:07;;;;;;;16.02;11.23;;;11.50;97.30;;;;;;5047221;28;20025;-84
2021/12/16 06:11:34;;;;;;;15.95;11.07;;;11.60;97.30;;;;;;5028622;28;20136;-84
2021/12/16 06:14:20;;;;;;;17.33;12.23;;;11.50;97.30;;;;;;5007830;28;20037;-84
2021/12/16 06:22:42;;;;;;;21.13;12.93;;;11.50;97.30;;;;;;5039882;28;20075;-84
2021/12/16 06:27:55;;;;;;;19.17;12.10;;;11.50;97.20;;;;;;5042290;28;20032;-84
2021/12/16 06:30:27;;;;;;;15.40;11.15;;;11.50;97.30;;;;;;5007160;28;20041;-84
2021/12/16 06:32:54;;;;;;;15.98;10.98;;;11.50;97.20;;;;;;5023678;28;20160;-84
2021/12/16 06:35:20;;;;;;;16.02;12.32;;;11.50;97.30;;;;;;5014639;28;20499;-83
2021/12/16 06:37:46;;;;;;;17.02;11.75;;;11.50;97.30;;;;;;5010678;28;20340;-84
2021/12/16 06:40:13;;;;;;;18.75;11.82;;;11.50;97.30;;;;;;5017568;28;20202;-84
2021/12/16 06:42:41;;;;;;;17.83;12.13;;;11.50;97.30;;;;;;5010108;28;20370;-84
2021/12/16 06:45:13;;;;;;;17.38;12.00;;;11.50;97.30;;;;;;4995454;28;20111;-84
2021/12/16 06:47:51;;;;;;;18.60;12.50;;;11.50;97.30;;;;;;5008036;28;20025;-84
2021/12/16 06:50:30;;;;;;;19.00;12.27;;;11.50;97.30;;;;;;5016503;28;20612;-84
2021/12/16 06:53:00;;;;;;;15.82;11.77;;;11.50;97.30;;;;;;5002177;28;20023;-84
2021/12/16 06:55:42;;;;;;;18.65;12.10;;;11.50;97.30;;;;;;5008527;28;20070;-84
2021/12/16 06:58:22;;;;;;;19.00;12.32;;;11.50;97.30;;;;;;4992120;28;20354;-84
2021/12/16 07:00:52;;;;;;;18.65;13.10;;;11.50;97.30;;;;;;5006364;28;20020;-84
2021/12/16 07:03:21;;;;;;;18.95;12.73;;;11.50;97.30;;;;;;5011247;28;20305;-84
2021/12/16 07:05:53;;;;;;;17.95;12.02;;;11.50;97.20;;;;;;5023657;28;20138;-84
2021/12/16 07:08:20;;;;;;;17.63;12.18;;;11.50;97.20;;;;;;5004299;28;20025;-84
2021/12/16 07:10:48;;;;;;;19.27;12.35;;;11.50;97.20;;;;;;5006980;28;20086;-84
2021/12/16 07:13:29;;;;;;;16.73;11.15;;;11.50;97.20;;;;;;5030140;28;20243;-84
2021/12/16 07:15:56;;;;;;;15.35;10.57;;;11.50;97.20;;;;;;5015006;28;20025;-84
2021/12/16 07:18:22;;;;;;;17.17;12.55;;;11.50;97.30;;;;;;5033603;28;20517;-84
2021/12/16 07:20:48;;;;;;;18.25;12.23;;;11.50;97.30;;;;;;5036206;28;20032;-84
2021/12/16 07:23:13;;;;;;;18.75;11.32;;;11.50;97.30;;;;;;5023934;28;20504;-84
2021/12/16 07:25:40;;;;;;;17.55;12.52;;;11.50;97.30;;;;;;4996929;28;20028;-84
2021/12/16 07:28:07;;;;;;;13.93;10.10;;;11.50;97.30;;;;;;5029476;28;20040;-84
2021/12/16 07:30:37;;;;;;;16.08;11.63;;;11.50;97.30;;;;;;5000821;28;20390;-84
2021/12/16 07:33:04;;;;;;;17.30;11.65;;;11.50;97.40;;;;;;5004383;28;20032;-84
2021/12/16 07:35:31;;;;;;;20.02;12.45;;;11.50;97.40;;;;;;5022120;28;20028;-84
2021/12/16 07:37:56;;;;;;;16.65;11.52;;;11.50;97.40;;;;;;5016233;28;20505;-84
2021/12/16 07:40:25;;;;;;;21.85;13.93;;;11.50;97.40;;;;;;5002417;28;20033;-84
2021/12/16 07:45:43;;;;;;;16.02;10.95;;;11.50;97.40;;;;;;4988673;28;20037;-84
2021/12/16 07:48:15;;;;;;;12.63;8.82;;;11.50;97.30;;;;;;4989362;28;20182;-84
2021/12/16 07:50:43;;;;;;;18.25;11.80;;;11.50;97.30;;;;;;5017906;28;20062;-84
2021/12/16 07:53:09;;;;;;;17.63;12.25;;;11.50;97.40;;;;;;5024880;28;20711;-84
2021/12/16 07:55:35;;;;;;;20.00;12.80;;;11.50;97.40;;;;;;5011396;28;20024;-84
2021/12/16 07:58:03;;;;;;;18.02;12.30;;;11.60;97.50;;;;;;5012624;28;20504;-84
2021/12/16 08:00:33;;;;;;;20.25;12.35;;;11.50;97.40;;;;;;5024425;28;20528;-84
2021/12/16 08:03:00;;;;;;;15.50;10.77;;;11.50;97.40;;;;;;5021475;28;20037;-84
2021/12/16 08:05:27;;;;;;;15.43;10.88;;;11.50;97.40;;;;;;5004131;28;20250;-84
2021/12/16 08:07:53;;;;;;;17.42;11.93;;;11.50;97.40;;;;;;5032623;28;20032;-84
2021/12/16 08:10:24;;;;;;;13.82;9.00;;;11.50;97.50;;;;;;5035651;28;20581;-84
2021/12/16 08:12:50;;;;;;;16.98;11.15;;;11.50;97.40;;;;;;5001207;28;20021;-84
2021/12/16 08:15:16;;;;;;;14.50;9.65;;;11.50;97.50;;;;;;5009491;28;20146;-84
2021/12/16 08:17:43;;;;;;;12.32;8.80;;;11.50;97.50;;;;;;5005453;28;20086;-84
2021/12/16 08:20:16;;;;;;;15.13;9.90;;;11.60;97.50;;;;;;5004464;28;20446;-84
2021/12/16 08:22:44;;;;;;;14.43;9.87;;;11.60;97.50;;;;;;5037206;28;20028;-84
2021/12/16 08:25:11;;;;;;;13.18;8.90;;;11.60;97.50;;;;;;5015378;28;20600;-84
2021/12/16 08:27:39;;;;;;;15.40;10.90;;;11.60;97.50;;;;;;5001744;28;20526;-84
2021/12/16 08:30:08;;;;;;;19.15;12.32;;;11.60;97.50;;;;;;5010065;28;20058;-84
2021/12/16 08:32:33;;;;;;;16.13;10.15;;;11.60;97.60;;;;;;5012460;28;20073;-84
2021/12/16 08:34:59;;;;;;;18.85;12.13;;;11.60;97.60;;;;;;5039796;28;20404;-84
2021/12/16 08:37:25;;;;;;;14.88;11.00;;;11.60;97.60;;;;;;5017552;28;20159;-84
2021/12/16 08:39:52;;;;;;;19.33;13.65;;;11.60;97.60;;;;;;5018307;28;20028;-84
2021/12/16 08:42:18;;;;;;;17.70;12.65;;;11.60;97.70;;;;;;5027926;28;20032;-84
2021/12/16 08:44:44;;;;;;;16.02;10.35;;;11.60;97.70;;;;;;5005400;28;20489;-84
2021/12/16 08:47:12;;;;;;;15.73;10.80;;;11.70;97.70;;;;;;5012629;28;20408;-84
2021/12/16 08:49:38;;;;;;;21.55;13.02;;;11.70;97.70;;;;;;5024330;28;20035;-84
2021/12/16 08:52:08;;;;;;;20.02;12.77;;;11.70;97.70;;;;;;5026319;28;20036;-84
2021/12/16 08:54:34;;;;;;;17.15;12.02;;;11.70;97.70;;;;;;5033527;28;20107;-84
2021/12/16 08:57:01;;;;;;;19.60;12.43;;;11.70;97.80;;;;;;5008464;28;20497;-84
2021/12/16 08:59:28;;;;;;;20.83;12.48;;;11.70;97.80;;;;;;5002608;28;20504;-83
2021/12/16 09:01:55;;;;;;;16.73;11.10;;;11.80;97.90;;;;;;5011560;28;20051;-84
2021/12/16 09:04:23;;;;;;;20.85;13.70;;;11.80;97.90;;;;;;5002199;28;20036;-84
2021/12/16 09:06:51;;;;;;;20.27;12.70;;;11.80;97.90;;;;;;5002085;28;20071;-84
2021/12/16 09:09:17;;;;;;;19.33;12.63;;;11.80;97.90;;;;;;5007030;28;20272;-84
2021/12/16 09:12:01;;;;;;;19.25;12.40;;;11.80;97.90;;;;;;5021481;28;20050;-84
2021/12/16 09:14:27;;;;;;;14.80;10.50;;;11.90;97.90;;;;;;5013657;28;20029;-84
2021/12/16 09:16:53;;;;;;;14.27;9.95;;;11.90;97.90;;;;;;4997590;28;20037;-84
2021/12/16 09:19:18;;;;;;;18.27;11.95;;;11.90;97.90;;;;;;5017766;28;20404;-84
2021/12/16 09:21:44;;;;;;;20.23;12.75;;;12.00;98.00;;;;;;5027877;28;20108;-84
2021/12/16 09:24:14;;;;;;;16.23;11.55;;;12.00;98.00;;;;;;5001419;28;20405;-84
2021/12/16 09:26:44;;;;;;;18.48;13.23;;;12.00;98.10;;;;;;5021111;28;20025;-84
2021/12/16 09:29:10;;;;;;;16.85;11.80;;;12.00;98.10;;;;;;4993175;28;20698;-84
2021/12/16 09:31:36;;;;;;;20.45;13.35;;;12.10;98.20;;;;;;5003543;28;20044;-84
2021/12/16 09:34:07;;;;;;;20.33;13.43;;;12.10;98.20;;;;;;5026852;28;20035;-84
2021/12/16 09:36:38;;;;;;;20.17;13.73;;;12.20;98.30;;;;;;5006099;28;20330;-84
2021/12/16 09:39:07;;;;;;;20.48;13.18;;;12.20;98.30;;;;;;5003517;28;20020;-84
2021/12/16 09:41:33;;;;;;;19.85;13.30;;;12.30;98.50;;;;;;5015997;28;20112;-84
2021/12/16 09:44:00;;;;;;;19.15;13.75;;;12.30;98.50;;;;;;5001764;28;20369;-84
2021/12/16 09:46:28;;;;;;;20.70;14.45;;;12.40;98.60;;;;;;5003429;28;20941;-84
2021/12/16 09:48:56;;;;;;;21.35;14.38;;;12.40;98.70;;;;;;5041674;28;20151;-84
2021/12/16 09:51:25;;;;;;;20.92;14.45;;;12.50;98.80;;;;;;5019272;28;20104;-84
2021/12/16 09:53:59;;;;;;;19.20;13.38;;;12.60;98.60;;;;;;5034378;28;20036;-84
2021/12/16 09:56:26;;;;;;;;;;;12.70;98.40;;;;;;5007630;28;20021;-84
2021/12/16 09:58:55;;;;;;;18.92;12.43;;;12.80;98.00;;;;;;5025974;28;20114;-84
2021/12/16 10:01:23;;;;;;;18.77;12.93;;;12.80;98.30;;;;;;4994366;28;20061;-84
2021/12/16 10:03:51;;;;;;;17.77;12.80;;;12.80;98.30;;;;;;5014547;28;20380;-84
2021/12/16 10:06:18;;;;;;;18.98;13.23;;;12.80;98.20;;;;;;5026397;28;20020;-84
2021/12/16 10:08:46;;;;;;;21.83;13.38;;;12.90;98.20;;;;;;5020635;28;20025;-84
2021/12/16 10:11:12;;;;;;;18.27;12.23;;;12.90;98.00;;;;;;5022942;28;20021;-84
2021/12/16 10:14:01;;;;;;;20.52;13.98;;;12.90;98.10;;;;;;5009277;28;20111;-84
2021/12/16 10:19:14;;;;;;;18.75;13.57;;;13.00;98.00;;;;;;5024565;28;20080;-84
2021/12/16 10:21:42;;;;;;;21.05;14.10;;;13.10;98.10;;;;;;5009655;28;20033;-84
2021/12/16 10:24:31;;;;;;;22.65;13.77;;;13.10;98.10;;;;;;5000817;28;20079;-84
2021/12/16 10:27:12;;;;;;;19.00;14.25;;;13.10;97.60;;;;;;5029888;28;20040;-84
2021/12/16 10:29:42;;;;;;;19.70;13.88;;;13.20;97.80;;;;;;5030770;28;20062;-84
2021/12/16 10:32:48;;;;;;;18.67;13.25;;;13.20;98.20;;;;;;5026729;28;20094;-84
2021/12/16 10:35:28;;;;;;;19.75;13.45;;;13.30;97.70;;;;;;5005954;28;20021;-84
2021/12/16 10:37:57;;;;;;;20.50;14.50;;;13.30;98.10;;;;;;5011997;28;20032;-84
2021/12/16 10:40:32;;;;;;;21.23;14.57;;;13.40;98.30;;;;;;5024305;28;20081;-84
2021/12/16 10:43:05;;;;;;;22.52;14.60;;;13.40;98.00;;;;;;5027665;28;20040;-84
2021/12/16 10:45:33;;;;;;;21.98;15.20;;;13.50;98.20;;;;;;5025973;28;20024;-84
2021/12/16 10:48:12;;;;;;;22.05;15.45;;;13.50;98.30;;;;;;4998653;28;20539;-84
2021/12/16 10:50:49;;;;;;;19.88;14.18;;;13.60;98.10;;;;;;5019523;28;20037;-84
2021/12/16 10:53:15;;;;;;;20.60;14.93;;;13.70;98.10;;;;;;5009114;28;20052;-84
2021/12/16 10:56:01;;;;;;;21.88;15.13;;;13.80;98.40;;;;;;4990881;28;20267;-84
2021/12/16 10:58:48;;;;;;;23.48;15.48;;;13.90;97.90;;;;;;5041200;28;20028;-84
2021/12/16 11:01:34;;;;;;;21.63;15.10;;;13.90;98.40;;;;;;5025875;28;20131;-84
2021/12/16 11:04:02;;;;;;;22.45;15.55;;;14.20;99.60;;;;;;5026743;28;20097;-84
2021/12/16 11:06:35;;;;;;;23.58;16.08;;;14.50;99.90;;;;;;5015134;28;20444;-84
2021/12/16 11:09:26;;;;;;;24.15;16.20;;;14.80;99.90;;;;;;4988472;28;20033;-84
2021/12/16 11:12:26;;;;;;;21.60;14.85;;;15.20;99.90;;;;;;5005089;28;20124;-84
2021/12/16 11:15:00;;;;;;;23.42;15.02;;;15.60;99.90;;;;;;4984891;28;20111;-84
2021/12/16 11:17:53;;;;;;;20.55;15.35;;;16.00;99.90;;;;;;5014120;28;20729;-84
2021/12/16 11:20:28;;;;;;;20.70;14.80;;;16.30;99.90;;;;;;5017289;28;20049;-84
2021/12/16 11:23:02;;;;;;;19.52;15.25;;;16.60;99.90;;;;;;5022771;28;20032;-84
2021/12/16 11:25:35;;;;;;;20.05;14.52;;;16.90;99.90;;;;;;5034545;28;20194;-84
2021/12/16 11:28:15;;;;;;;18.55;14.63;;;17.20;99.90;;;;;;5031452;28;20028;-84
2021/12/16 11:30:54;;;;;;;18.60;14.23;;;17.50;99.40;;;;;;5027714;28;20134;-84
2021/12/16 11:33:28;;;;;;;17.20;13.77;;;17.90;99.80;;;;;;4992447;28;20537;-84
2021/12/16 11:35:59;;;;;;;19.98;14.40;;;18.20;99.80;;;;;;4977801;28;20564;-84
2021/12/16 11:38:30;;;;;;;16.17;13.20;;;18.60;99.90;;;;;;5018573;28;20153;-84
2021/12/16 11:41:09;;;;;;;15.13;11.60;;;18.90;99.90;;;;;;5016279;28;20028;-84
2021/12/16 11:43:58;;;;;;;14.27;12.27;;;19.30;99.00;;;;;;5005801;28;20392;-84
2021/12/16 11:46:44;;;;;;;16.27;12.55;;;19.60;99.40;;;;;;4985584;28;20376;-84
2021/12/16 11:49:39;;;;;;;14.68;12.23;;;20.10;97.20;;;;;;4997430;28;20037;-84
2021/12/16 11:52:17;;;;;;;13.38;11.25;;;20.40;95.90;;;;;;4988635;28;20294;-84
2021/12/16 11:54:59;;;;;;;18.05;11.98;;;20.70;96.20;;;;;;5003738;28;20032;-84
2021/12/16 11:57:43;;;;;;;14.48;12.15;;;21.00;97.10;;;;;;4988120;28;20644;-84
2021/12/16 12:00:15;;;;;;;14.10;11.25;;;21.40;94.70;;;;;;5023986;28;20577;-84
2021/12/16 12:02:43;;;;;;;13.85;11.63;;;21.60;95.80;;;;;;4995320;28;20033;-84
2021/12/16 12:05:26;;;;;;;15.18;12.85;;;21.80;95.20;;;;;;4995291;28;20103;-84
2021/12/16 12:07:56;;;;;;;14.80;12.02;;;21.90;93.70;;;;;;4988645;28;20437;-84
2021/12/16 12:10:41;;;;;;;15.50;11.95;;;22.00;94.30;;;;;;5024998;28;20413;-84
2021/12/16 12:13:21;;;;;;;13.82;11.95;;;22.00;91.80;;;;;;4978994;28;20259;-84
2021/12/16 12:16:03;;;;;;;13.93;11.10;;;22.00;93.40;;;;;;4991464;28;20017;-84
2021/12/16 12:18:33;;;;;;;13.98;11.82;;;21.90;91.20;;;;;;4989103;28;20037;-84
2021/12/16 12:21:38;;;;;;;14.23;12.07;;;21.80;92.50;;;;;;4997482;28;20147;-84
2021/12/16 12:24:14;;;;;;;13.73;12.27;;;21.70;91.00;;;;;;4971131;28;20985;-84
2021/12/16 12:27:07;;;;;;;16.30;12.70;;;21.60;93.00;;;;;;5019994;28;20033;-84
2021/12/16 12:29:43;;;;;;;13.90;11.60;;;21.60;92.80;;;;;;4983347;28;20029;-84
2021/12/16 12:32:25;;;;;;;16.48;12.43;;;21.50;92.30;;;;;;5027547;28;20028;-84
2021/12/16 12:35:02;;;;;;;13.27;11.77;;;21.40;91.90;;;;;;5012327;28;20025;-84
2021/12/16 12:37:31;;;;;;;14.18;12.18;;;21.20;91.40;;;;;;5040456;28;20032;-84
2021/12/16 12:40:21;;;;;;;15.45;12.50;;;21.00;92.50;;;;;;5007240;28;20242;-84
2021/12/16 12:42:49;;;;;;;13.35;11.25;;;20.80;90.40;;;;;;5027996;28;20017;-84
2021/12/16 12:45:19;;;;;;;14.45;11.55;;;20.60;92.50;;;;;;5003271;28;20468;-83
2021/12/16 12:47:49;;;;;;;15.55;12.38;;;20.50;92.30;;;;;;5008285;28;20520;-83
2021/12/16 12:50:23;;;;;;;16.15;12.57;;;20.30;92.80;;;;;;5019306;28;20329;-84
2021/12/16 12:52:52;;;;;;;16.15;13.18;;;20.10;92.30;;;;;;5013523;28;20029;-84
2021/12/16 12:55:23;;;;;;;17.70;13.10;;;19.90;92.60;;;;;;5022955;28;20009;-83
2021/12/16 12:57:49;;;;;;;16.67;12.85;;;19.70;92.30;;;;;;5006974;28;20061;-83
2021/12/16 13:00:30;;;;;;;16.33;12.43;;;19.50;92.60;;;;;;5041875;28;20033;-83
2021/12/16 13:03:06;;;;;;;19.40;13.38;;;19.30;92.40;;;;;;5033605;28;20040;-83
2021/12/16 13:05:31;;;;;;;17.55;14.10;;;19.30;94.10;;;;;;5019119;28;20120;-83
2021/12/16 13:08:04;;;;;;;19.15;14.02;;;19.30;95.30;;;;;;4997969;28;20063;-84
2021/12/16 13:10:39;;;;;;;19.60;14.07;;;19.40;95.70;;;;;;5006057;28;20079;-83
2021/12/16 13:13:30;;;;;;;15.52;12.80;;;19.60;96.40;;;;;;5002955;28;20227;-83
2021/12/16 13:24:41;;;;;;;18.13;12.68;;;20.50;95.70;;;;;;5038975;28;20748;-84
2021/12/16 13:27:20;;;;;;;14.23;12.32;;;20.60;94.60;;;;;;5021052;28;20106;-83
2021/12/16 13:32:48;;;;;;;16.83;12.45;;;20.80;94.90;;;;;;4981590;28;1109837;-83
2021/12/16 13:35:34;;;;;;;17.55;12.45;;;20.90;95.20;;;;;;5012720;28;20310;-84
2021/12/16 13:38:07;;;;;;;13.70;12.00;;;21.00;93.70;;;;;;4995562;28;20033;-84
2021/12/16 13:40:36;;;;;;;15.63;12.48;;;20.90;92.30;;;;;;5018418;28;20029;-83
2021/12/16 13:43:18;;;;;;;13.75;11.65;;;20.90;92.50;;;;;;5007891;28;20025;-84
2021/12/16 13:46:02;;;;;;;14.10;11.55;;;20.80;91.30;;;;;;5010027;28;20036;-84
2021/12/16 14:01:05;;;;;;;16.58;12.05;;;20.20;90.80;;;;;;5017066;28;20282;-83
2021/12/16 14:02:59;;;;;;;14.57;11.77;;;20.20;93.40;;;;;;5031143;28;20433;-83
2021/12/16 14:05:45;;;;;;;17.60;13.25;;;20.20;92.80;;;;;;5021792;28;20391;-84
2021/12/16 14:08:25;;;;;;;14.68;11.55;;;20.20;91.40;;;;;;5030686;28;20339;-84
2021/12/16 14:10:58;;;;;;;14.20;11.40;;;20.10;92.00;;;;;;5014037;28;20028;-84
2021/12/16 14:25:37;;;;;;;15.40;11.98;;;18.90;90.10;;;;;;5019014;28;20392;-83
2021/12/16 14:36:49;;;;;;;16.88;12.85;;;17.80;90.40;;;;;;5030453;28;20210;-83
2021/12/16 14:41:51;;;;;;;17.40;12.07;;;17.30;90.20;;;;;;5042286;28;20029;-83
2021/12/16 14:49:37;;;;;;;17.17;13.15;;;16.80;90.70;;;;;;5041986;28;20061;-83
2021/12/16 14:52:04;;;;;;;17.20;12.90;;;16.60;90.70;;;;;;5007101;28;20229;-83
2021/12/16 14:54:34;;;;;;;16.48;12.68;;;16.50;90.90;;;;;;5025781;28;20081;-83
2021/12/16 14:57:02;;;;;;;15.40;12.27;;;16.30;91.00;;;;;;4997370;28;20223;-83
2021/12/16 14:59:30;;;;;;;15.02;12.02;;;16.20;91.10;;;;;;5009974;28;20040;-83
2021/12/16 15:02:00;;;;;;;16.83;12.60;;;16.00;91.10;;;;;;5028042;28;20036;-83
2021/12/16 15:04:29;;;;;;;15.00;11.60;;;15.90;91.10;;;;;;5022918;28;20405;-83
2021/12/16 15:07:03;;;;;;;18.33;11.73;;;15.80;91.00;;;;;;5006061;28;20037;-83
2021/12/16 15:09:33;;;;;;;16.67;12.13;;;15.70;90.90;;;;;;5037046;28;20040;-83
2021/12/16 15:12:18;;;;;;;15.30;11.30;;;15.60;91.00;;;;;;5011023;28;20328;-83
2021/12/16 15:40:29;;;;;;;16.02;11.70;;;14.30;90.40;;;;;;5010150;28;20028;-83
2021/12/16 15:42:58;;;;;;;17.27;11.63;;;14.10;90.20;;;;;;5019974;28;20032;-83
2021/12/16 15:45:29;;;;;;;15.70;10.85;;;14.00;90.20;;;;;;5011730;28;20494;-83
2021/12/16 15:47:58;;;;;;;14.85;11.38;;;13.90;90.30;;;;;;5006647;28;20025;-83
2021/12/16 15:50:37;;;;;;;17.17;12.77;;;13.80;90.30;;;;;;5013666;28;20040;-83
2021/12/16 15:53:06;;;;;;;16.73;11.55;;;13.70;90.50;;;;;;5016909;28;20055;-83
2021/12/16 15:55:34;;;;;;;17.92;11.65;;;13.60;90.50;;;;;;5004180;28;20028;-83
2021/12/16 15:58:11;;;;;;;12.63;9.98;;;13.50;90.50;;;;;;5014785;28;20037;-83
2021/12/16 16:00:41;;;;;;;15.85;10.93;;;13.40;90.20;;;;;;5045195;28;20381;-83
2021/12/16 16:03:08;;;;;;;19.05;11.55;;;13.40;90.30;;;;;;5010041;28;20067;-83
2021/12/16 16:05:37;;;;;;;15.18;11.20;;;13.30;90.40;;;;;;5023346;28;20033;-83
2021/12/16 16:08:05;;;;;;;15.20;10.57;;;13.20;90.40;;;;;;5008581;28;20280;-83
2021/12/16 16:10:31;;;;;;;13.23;9.68;;;13.10;90.40;;;;;;5007395;28;20393;-83
2021/12/16 16:13:14;;;;;;;12.82;9.63;;;13.00;90.70;;;;;;4995869;28;20025;-83
2021/12/16 16:15:43;;;;;;;13.83;9.87;;;12.90;90.40;;;;;;5011574;28;20017;-83
2021/12/16 16:18:33;;;;;;;13.70;10.20;;;12.80;90.40;;;;;;4996283;28;20068;-83
2021/12/16 16:21:23;;;;;;;12.77;9.93;;;12.80;90.20;;;;;;5000569;28;20257;-83
2021/12/16 16:23:54;;;;;;;13.70;10.38;;;12.70;89.60;;;;;;5023396;28;20033;-83
2021/12/16 16:26:21;;;;;;;15.82;10.82;;;12.50;90.10;;;;;;5011798;28;20531;-84
2021/12/16 16:28:55;;;;;;;15.23;11.07;;;12.50;90.40;;;;;;5000074;28;20500;-84
2021/12/16 16:31:22;;;;;;;;;;;12.40;90.40;;;;;;5017461;28;20106;-83
2021/12/16 16:33:50;;;;;;;11.32;8.98;;;12.30;90.30;;;;;;5042953;28;19912;-83
2021/12/16 16:36:19;;;;;;;11.18;8.52;;;12.20;90.40;;;;;;5023008;28;20462;-83
2021/12/16 16:38:49;;;;;;;12.13;8.48;;;12.20;90.40;;;;;;5016903;28;20029;-83
2021/12/16 16:41:17;;;;;;;13.88;9.30;;;12.10;90.50;;;;;;4995569;28;20048;-83
2021/12/16 16:43:45;;;;;;;13.25;9.38;;;12.00;90.70;;;;;;5022441;28;20037;-84
2021/12/16 16:46:37;;;;;;;13.63;9.32;;;12.00;90.70;;;;;;5024390;28;20087;-84